Waupaca, WI

8:18 AM CDT on August 19, 2017 (GMT -0500)
Waupaca Municipal | | Change Station
Active Advisory: Special Statement

Elev 827 ft 44.33 °N, 89.02 °W | Updated 23 minutes ago

Scattered Clouds
Scattered Clouds
66 °F
Feels Like 66 °F
N
5
Wind Variable Wind from West

Today
High -- | Low -- °F
--% Chance of Precip.
Yesterday
High -- | Low -- °F
Precip. -- in
Pressure 29.95 in
Visibility 7.0 miles
Clouds Scattered Clouds 600 ft
Dew Point 64 °F
Humidity 94%
Rainfall 0.00 in
Snow Depth Not available.
6:04 AM 7:54 PM
Waning Crescent, 7% visible
METAR KPCZ 191255Z AUTO 28004KT 7SM SCT006 19/18 A2995 RMK AO2 T01900180
Pressure 29.95 in
Visibility 7.0 miles
Clouds Scattered Clouds 600 ft
Dew Point 64 °F
Humidity 94%
Rainfall 0.00 in
Snow Depth Not available.
6:04 AM 7:54 PM
Waning Crescent, 7% visible
METAR KPCZ 191255Z AUTO 28004KT 7SM SCT006 19/18 A2995 RMK AO2 T01900180

Get Your Daily Forecast Email!

Thanks for signing up!

Be on the lookout for a verification email in your inbox.

You'll start receiving severe weather alerts in your inbox..

×

10-Day Weather Forecast

Almanac

Astronomy

Aug. 19, 2017 Rise Set
Actual Time
Civil Twilight
Nautical Twilight
Astronomical Twilight
Moon
Length of Visible Light
Length of Day
Tomorrow will be .
, % of the Moon is Illuminated

Today's Extremes

State Highs State Lows

Community

WunderPhotos

Category 6

Welcome to Category 6. This is the collective home for Weather Underground's featured writeups by Dr. Jeff Masters (right), Bob Henson (left), Chris Burt, and other regular contributors.

Nearby

Air Quality

  Air Quality AQ Index Pollutant
Not available.

Snow Depth

Station Depth Elevation

Earthquake Activity

City Distance Mag. Time & Date
Minimum magnitude displayed is 2.5.

Coastal Water Temperatures

Place Temperature

Stations

Nearby Weather Stations

Station Location Temp. Windchill Dew Point Humidity Wind Precip. Elev Updated Type
                   

Watches & Warnings

Special Statement
Issued: 4:28 AM CDT Aug. 19, 2017 – National Weather Service

... Patchy dense fog this morning...

Light winds, combined with a moist ground and decreased clouds,
have produced areas of fog early this morning. The fog is locally
dense at times reducing visibilities to one quarter mile or less.

Motorists should use caution and be alert for reduced visibilities
this morning. The fog is expected to dissipate between 8 am and 9
am.


Tdh